Time;durP1;ratioP1;P1;durP2;ratioP2;P2;SDS_P1;SDS_P2;PMS_P1;PMS_P2;Temp;Humidity;BMP_temperature;BMP_pressure;BME280_temperature;BME280_humidity;BME280_pressure;Samples;Min_cycle;Max_cycle;Signal;HPM_P1;HPM_P2
2023/04/07 00:02:19;;;;;;;28.05;14.77;;;;;;;7.14;100.00;101137.59;5119442;27;20028;-77
2023/04/07 00:04:44;;;;;;;34.50;17.35;;;;;;;7.23;100.00;101142.00;5084714;28;20039;-78
2023/04/07 00:07:10;;;;;;;30.90;16.63;;;;;;;7.19;100.00;101145.78;5101240;28;20040;-78
2023/04/07 00:09:36;;;;;;;32.28;17.85;;;;;;;7.27;100.00;101142.56;5087259;28;20032;-77
2023/04/07 00:12:02;;;;;;;38.08;19.20;;;;;;;7.27;100.00;101148.56;5065071;28;20078;-78
2023/04/07 00:14:28;;;;;;;42.33;21.23;;;;;;;7.32;100.00;101154.13;5083468;28;20031;-77
2023/04/07 00:16:53;;;;;;;38.60;20.83;;;;;;;7.45;100.00;101153.16;5083308;28;20410;-78
2023/04/07 00:19:19;;;;;;;41.08;20.60;;;;;;;7.48;100.00;101148.53;5084580;28;20452;-78
2023/04/07 00:21:45;;;;;;;44.70;21.73;;;;;;;7.48;100.00;101153.72;5082968;28;20024;-78
2023/04/07 00:24:10;;;;;;;43.17;21.80;;;;;;;7.50;100.00;101148.44;5065733;28;20401;-77
2023/04/07 00:26:36;;;;;;;47.70;23.90;;;;;;;7.62;100.00;101149.97;5065977;28;20032;-78
2023/04/07 00:29:01;;;;;;;46.35;23.75;;;;;;;7.58;100.00;101157.16;5081472;28;20080;-78
2023/04/07 00:31:26;;;;;;;49.95;23.88;;;;;;;7.75;100.00;101147.19;5077735;28;20044;-78
2023/04/07 00:33:52;;;;;;;51.78;25.60;;;;;;;7.63;100.00;101141.28;5083021;28;20024;-77
2023/04/07 00:36:17;;;;;;;47.25;23.98;;;;;;;7.53;100.00;101148.97;5082547;28;22233;-77
2023/04/07 00:38:43;;;;;;;58.45;24.83;;;;;;;7.54;100.00;101153.19;5067099;28;20040;-78
2023/04/07 00:41:08;;;;;;;61.85;26.45;;;;;;;7.62;100.00;101144.81;5066082;28;20048;-77
2023/04/07 00:43:34;;;;;;;54.42;25.52;;;;;;;7.65;100.00;101141.97;5085753;28;20028;-77
2023/04/07 00:46:00;;;;;;;60.42;27.42;;;;;;;7.63;100.00;101149.03;5080233;28;20051;-77
2023/04/07 00:48:26;;;;;;;53.08;25.67;;;;;;;7.60;100.00;101142.34;5082035;28;20127;-78
2023/04/07 00:50:52;;;;;;;63.70;28.70;;;;;;;7.65;100.00;101141.97;5081608;28;20028;-78
2023/04/07 00:53:19;;;;;;;59.08;27.48;;;;;;;7.62;100.00;101142.22;5063048;28;20041;-78
2023/04/07 00:55:44;;;;;;;57.75;27.25;;;;;;;7.52;100.00;101139.59;5082787;28;20066;-78
2023/04/07 00:58:10;;;;;;;62.83;28.63;;;;;;;7.65;100.00;101141.13;5085030;28;20055;-78
2023/04/07 01:00:59;;;;;;;63.17;29.25;;;;;;;7.62;100.00;101144.00;5062547;28;20082;-78
2023/04/07 01:03:33;;;;;;;58.95;27.65;;;;;;;7.67;100.00;101147.03;5049628;28;20023;-78
2023/04/07 01:06:01;;;;;;;60.00;27.50;;;;;;;7.60;100.00;101141.53;5083567;28;20054;-77
2023/04/07 01:08:45;;;;;;;58.63;26.58;;;;;;;7.55;100.00;101147.09;5063945;28;20412;-78
2023/04/07 01:12:03;;;;;;;56.25;27.02;;;;;;;7.64;100.00;101149.84;5066011;28;20024;-77
2023/04/07 01:14:33;;;;;;;60.47;27.35;;;;;;;7.57;100.00;101150.38;5081635;28;20089;-78
2023/04/07 01:17:08;;;;;;;60.30;27.92;;;;;;;7.63;100.00;101140.47;5080542;28;20036;-78
2023/04/07 01:19:47;;;;;;;68.07;28.42;;;;;;;7.52;100.00;101147.34;5084721;28;20028;-77
2023/04/07 01:22:16;;;;;;;66.97;26.83;;;;;;;7.52;100.00;101146.53;5082921;28;20090;-78
2023/04/07 01:25:19;;;;;;;59.78;26.77;;;;;;;7.61;100.00;101143.19;5068602;28;20110;-78
2023/04/07 01:28:02;;;;;;;58.88;26.42;;;;;;;7.57;100.00;101136.63;5081990;28;20114;-78
2023/04/07 01:30:31;;;;;;;57.42;26.52;;;;;;;7.66;100.00;101140.22;5086488;28;20035;-78
2023/04/07 01:32:59;;;;;;;57.85;26.90;;;;;;;7.60;100.00;101137.19;5066473;28;20084;-77
2023/04/07 01:35:29;;;;;;;63.58;26.92;;;;;;;7.67;100.00;101128.94;5068300;28;20028;-78
2023/04/07 01:37:56;;;;;;;62.53;27.17;;;;;;;7.62;100.00;101136.25;5069728;28;20379;-77
2023/04/07 01:40:24;;;;;;;70.25;27.20;;;;;;;7.60;100.00;101131.22;5084302;28;20028;-78
2023/04/07 01:42:50;;;;;;;58.60;27.25;;;;;;;7.62;100.00;101133.69;5085713;28;20883;-78
2023/04/07 01:45:17;;;;;;;61.67;27.85;;;;;;;7.66;100.00;101138.44;5087875;28;20059;-79
2023/04/07 01:47:44;;;;;;;62.47;28.45;;;;;;;7.77;100.00;101138.34;5073160;28;20063;-78
2023/04/07 01:50:11;;;;;;;55.55;26.38;;;;;;;7.69;100.00;101137.38;5086031;28;20047;-77
2023/04/07 01:52:38;;;;;;;63.72;26.25;;;;;;;7.69;100.00;101139.97;5071253;28;20060;-78
2023/04/07 01:55:05;;;;;;;67.88;27.25;;;;;;;7.66;100.00;101141.03;5084143;28;20497;-78
2023/04/07 01:57:34;;;;;;;66.72;27.63;;;;;;;7.60;100.00;101141.53;5086954;28;20024;-78
2023/04/07 02:00:07;;;;;;;63.72;28.25;;;;;;;7.65;100.00;101147.16;5073725;28;20093;-79
2023/04/07 02:02:43;;;;;;;59.30;27.27;;;;;;;7.62;100.00;101138.84;5083898;28;20029;-78
2023/04/07 02:05:13;;;;;;;62.08;27.75;;;;;;;7.64;100.00;101142.91;5089242;28;20024;-77
2023/04/07 02:07:54;;;;;;;65.30;27.33;;;;;;;7.64;100.00;101142.91;5088450;28;20036;-77
2023/04/07 02:10:24;;;;;;;58.08;27.75;;;;;;;7.61;100.00;101138.03;5069978;28;20036;-79
2023/04/07 02:12:52;;;;;;;61.50;27.13;;;;;;;7.65;100.00;101143.72;5085074;28;20044;-77
2023/04/07 02:15:20;;;;;;;67.32;28.10;;;;;;;7.65;100.00;101143.72;5067939;28;20032;-79
2023/04/07 02:17:50;;;;;;;74.85;29.50;;;;;;;7.67;100.00;101141.84;5121583;27;20035;-79
2023/04/07 02:20:17;;;;;;;67.70;29.25;;;;;;;7.67;100.00;101145.25;5092503;28;20024;-77
2023/04/07 02:22:43;;;;;;;64.60;27.17;;;;;;;7.61;100.00;101135.44;5086104;28;20024;-78
2023/04/07 02:25:28;;;;;;;61.53;27.67;;;;;;;7.69;100.00;101142.53;5087210;28;20024;-78
2023/04/07 02:27:55;;;;;;;60.92;26.80;;;;;;;7.75;100.00;101140.25;5085865;28;20062;-78
2023/04/07 02:30:21;;;;;;;58.28;24.60;;;;;;;7.69;100.00;101137.38;5067944;28;20478;-79
2023/04/07 02:32:46;;;;;;;57.30;23.13;;;;;;;7.75;100.00;101137.66;5082725;28;20051;-77
2023/04/07 02:35:14;;;;;;;45.17;21.92;;;;;;;7.69;100.00;101137.38;5071723;28;20020;-78
2023/04/07 02:37:40;;;;;;;48.85;21.23;;;;;;;7.68;100.00;101136.53;5083168;28;20397;-77
2023/04/07 02:40:06;;;;;;;41.53;20.80;;;;;;;7.66;100.00;101135.84;5068613;28;20085;-78
2023/04/07 02:42:32;;;;;;;44.80;20.63;;;;;;;7.68;100.00;101140.91;5084266;28;20024;-77
2023/04/07 02:44:57;;;;;;;48.63;20.77;;;;;;;7.59;100.00;101145.06;5088166;28;20389;-78
2023/04/07 02:47:24;;;;;;;42.30;20.10;;;;;;;7.59;100.00;101145.06;5086377;28;20477;-78
2023/04/07 02:49:50;;;;;;;47.72;21.30;;;;;;;7.62;100.00;101142.22;5088677;28;20039;-79
2023/04/07 02:52:16;;;;;;;47.90;22.02;;;;;;;7.56;100.00;101151.28;5068868;28;20040;-78
2023/04/07 02:54:41;;;;;;;45.95;21.80;;;;;;;7.53;100.00;101146.38;5072823;28;20433;-78
2023/04/07 02:57:08;;;;;;;51.22;21.67;;;;;;;7.53;100.00;101153.31;5084280;28;20043;-78
2023/04/07 02:59:34;;;;;;;52.72;23.63;;;;;;;7.49;100.00;101152.75;5086580;28;21854;-77
2023/04/07 03:07:16;;;;;;;44.58;21.10;;;;;;;7.67;100.00;101153.00;5081409;28;20086;-79
2023/04/07 03:09:42;;;;;;;46.88;22.15;;;;;;;7.62;100.00;101149.16;5086379;28;20036;-79
2023/04/07 03:12:07;;;;;;;41.08;20.13;;;;;;;7.64;100.00;101152.44;5086381;28;20047;-78
2023/04/07 03:14:34;;;;;;;42.35;20.40;;;;;;;7.68;100.00;101152.03;5068061;28;20106;-79
2023/04/07 03:17:00;;;;;;;42.30;20.88;;;;;;;7.70;100.00;101159.66;5087855;28;20036;-78
2023/04/07 03:19:26;;;;;;;42.38;19.83;;;;;;;7.71;100.00;101153.56;5086112;28;20025;-79
2023/04/07 03:21:51;;;;;;;38.67;19.23;;;;;;;7.55;100.00;101154.84;5081303;28;20031;-79
2023/04/07 03:24:17;;;;;;;46.85;20.33;;;;;;;7.67;100.00;101149.59;5081846;28;20040;-78
2023/04/07 03:26:45;;;;;;;50.13;20.48;;;;;;;7.60;100.00;101147.50;5050748;28;20405;-79
2023/04/07 03:29:18;;;;;;;42.55;18.83;;;;;;;7.49;100.00;101151.94;5064918;28;20035;-78
2023/04/07 03:31:44;;;;;;;48.50;20.20;;;;;;;7.45;100.00;101153.94;5052026;28;20032;-79
2023/04/07 03:34:12;;;;;;;43.70;19.05;;;;;;;7.41;100.00;101147.41;5047871;28;20360;-77
2023/04/07 03:36:38;;;;;;;38.45;18.05;;;;;;;7.41;100.00;101153.38;5067494;28;20508;-78
2023/04/07 03:39:05;;;;;;;41.00;17.75;;;;;;;7.44;100.00;101154.06;5044136;28;20191;-79
2023/04/07 03:41:31;;;;;;;36.58;17.17;;;;;;;7.48;100.00;101148.53;5076440;28;20054;-78
2023/04/07 03:43:57;;;;;;;36.15;16.58;;;;;;;7.51;100.00;101153.44;5053314;28;20085;-79
2023/04/07 03:46:23;;;;;;;30.35;16.90;;;;;;;7.43;100.00;101158.44;5047962;28;20036;-78
2023/04/07 03:48:49;;;;;;;35.60;14.95;;;;;;;7.43;100.00;101157.63;5076950;28;20020;-79
2023/04/07 03:51:15;;;;;;;37.75;15.18;;;;;;;7.34;100.00;101162.56;5069203;28;20471;-78
2023/04/07 03:53:40;;;;;;;30.88;16.27;;;;;;;7.30;100.00;101171.50;5070286;28;20405;-79
2023/04/07 03:56:32;;;;;;;30.63;14.73;;;;;;;7.39;100.00;101159.63;5070931;28;20054;-78
2023/04/07 03:58:58;;;;;;;28.95;14.38;;;;;;;7.31;100.00;101169.75;5067872;28;20382;-78
2023/04/07 04:01:27;;;;;;;30.00;14.05;;;;;;;7.30;100.00;101174.09;5055238;28;20031;-78
2023/04/07 04:03:55;;;;;;;28.90;14.95;;;;;;;7.30;100.00;101163.75;5061381;28;20028;-78
2023/04/07 04:06:28;;;;;;;31.73;13.90;;;;;;;7.31;100.00;101167.16;5068871;28;20028;-78
2023/04/07 04:09:02;;;;;;;32.47;14.55;;;;;;;7.29;100.00;101171.63;5061429;28;20031;-78
2023/04/07 04:11:31;;;;;;;31.63;14.50;;;;;;;7.20;100.00;101175.78;5083335;28;20092;-78
2023/04/07 04:14:01;;;;;;;23.92;12.65;;;;;;;7.20;100.00;101184.34;5053647;28;20097;-78
2023/04/07 04:16:27;;;;;;;32.83;14.18;;;;;;;7.20;100.00;101183.53;5051796;28;20028;-79
2023/04/07 04:18:56;;;;;;;32.72;13.00;;;;;;;7.18;100.00;101186.22;5066736;28;20081;-78
2023/04/07 04:21:23;;;;;;;27.05;13.48;;;;;;;7.21;100.00;101191.16;5050572;28;20016;-78
2023/04/07 04:23:49;;;;;;;22.92;13.32;;;;;;;7.22;100.00;101195.34;5067474;28;20090;-78
2023/04/07 04:26:15;;;;;;;27.70;12.77;;;;;;;7.24;100.00;101192.66;5065933;28;20031;-77
2023/04/07 04:28:43;;;;;;;29.98;13.25;;;;;;;7.23;100.00;101185.84;5068067;28;20031;-79
2023/04/07 04:31:09;;;;;;;24.90;12.13;;;;;;;7.28;100.00;101195.81;5067730;28;20036;-77
2023/04/07 04:33:39;;;;;;;27.17;11.93;;;;;;;7.28;100.00;101188.06;5051219;28;20119;-81
2023/04/07 04:36:05;;;;;;;24.33;11.48;;;;;;;7.34;100.00;101193.53;5063104;28;20040;-77
2023/04/07 04:38:32;;;;;;;22.35;10.60;;;;;;;7.30;100.00;101192.16;5067456;28;20032;-78
2023/04/07 04:41:10;;;;;;;23.52;11.00;;;;;;;7.33;100.00;101191.91;5065790;28;20046;-78
2023/04/07 04:43:37;;;;;;;23.80;9.57;;;;;;;7.38;100.00;101199.25;5085096;28;20032;-76
2023/04/07 04:46:04;;;;;;;21.05;9.35;;;;;;;7.33;100.00;101196.25;5065605;28;20028;-78
2023/04/07 04:48:34;;;;;;;24.45;8.07;;;;;;;7.28;100.00;101188.88;5067132;28;20119;-78
2023/04/07 04:51:03;;;;;;;19.58;9.25;;;;;;;7.29;100.00;101197.41;5066631;28;20501;-78
2023/04/07 04:53:29;;;;;;;19.70;9.15;;;;;;;7.31;100.00;101198.13;5053793;28;20027;-77
2023/04/07 04:55:58;;;;;;;17.35;7.57;;;;;;;7.19;100.00;101198.16;5051416;28;20392;-78
2023/04/07 04:58:34;;;;;;;21.92;8.88;;;;;;;7.19;100.00;101205.91;5067923;28;20394;-76
2023/04/07 05:01:00;;;;;;;18.25;8.88;;;;;;;7.16;100.00;101206.16;5067611;28;20048;-79
2023/04/07 05:03:34;;;;;;;14.68;7.78;;;;;;;7.08;100.00;101198.22;5068143;28;20023;-77
2023/04/07 05:06:03;;;;;;;18.20;8.93;;;;;;;7.18;100.00;101206.88;5053379;28;20043;-78
2023/04/07 05:08:28;;;;;;;19.40;7.68;;;;;;;7.16;100.00;101206.16;5047868;28;20032;-78
2023/04/07 05:10:56;;;;;;;19.10;8.13;;;;;;;7.28;100.00;101206.94;5082182;28;20184;-78
2023/04/07 05:13:24;;;;;;;19.00;8.18;;;;;;;7.20;100.00;101210.13;5068850;28;20024;-78
2023/04/07 05:15:51;;;;;;;16.30;8.32;;;;;;;7.17;100.00;101209.56;5049402;28;20578;-77
2023/04/07 05:18:17;;;;;;;15.95;7.65;;;;;;;7.18;100.00;101204.28;5053602;28;20031;-78
2023/04/07 05:20:43;;;;;;;19.42;8.00;;;;;;;7.26;100.00;101215.75;5063686;28;20395;-78
2023/04/07 05:23:09;;;;;;;14.60;7.22;;;;;;;7.16;100.00;101216.50;5072046;28;20642;-78
2023/04/07 05:25:36;;;;;;;15.18;7.80;;;;;;;7.24;100.00;101213.28;5083931;28;20036;-78
2023/04/07 05:28:03;;;;;;;17.27;7.53;;;;;;;7.14;100.00;101217.53;5051720;28;20087;-79
2023/04/07 05:30:30;;;;;;;16.73;7.70;;;;;;;7.06;100.00;101217.34;5053047;28;20025;-77
2023/04/07 05:32:55;;;;;;;16.98;7.75;;;;;;;7.05;100.00;101223.47;5067094;28;20502;-78
2023/04/07 05:35:31;;;;;;;22.75;7.85;;;;;;;7.13;100.00;101227.03;5087225;28;20043;-77
2023/04/07 05:37:58;;;;;;;15.90;7.85;;;;;;;7.13;100.00;101231.38;5063510;28;20543;-77
2023/04/07 05:40:23;;;;;;;19.25;8.60;;;;;;;7.07;100.00;101237.03;5065918;28;20031;-77
2023/04/07 05:42:49;;;;;;;17.75;7.93;;;;;;;7.04;100.00;101235.50;5067919;28;20032;-77
2023/04/07 05:45:15;;;;;;;16.20;7.60;;;;;;;7.11;100.00;101236.66;5082147;28;20047;-77
2023/04/07 05:47:48;;;;;;;15.50;7.97;;;;;;;7.13;100.00;101246.84;5056401;28;20090;-77
2023/04/07 05:50:15;;;;;;;15.80;8.45;;;;;;;7.16;100.00;101238.88;5072490;28;20081;-77
2023/04/07 05:52:44;;;;;;;17.52;8.00;;;;;;;7.14;100.00;101236.44;5051858;28;20024;-77
2023/04/07 05:55:19;;;;;;;19.83;8.20;;;;;;;7.21;100.00;101237.56;5055281;28;20028;-77
2023/04/07 05:57:46;;;;;;;15.80;8.23;;;;;;;7.12;100.00;101240.06;5062113;28;20039;-77
2023/04/07 06:00:13;;;;;;;21.92;8.52;;;;;;;7.12;100.00;101237.47;5074841;28;20047;-77
2023/04/07 06:02:46;;;;;;;19.95;7.85;;;;;;;7.11;100.00;101248.75;5080197;28;20029;-77
2023/04/07 06:05:16;;;;;;;17.27;7.53;;;;;;;7.05;100.00;101249.25;5048173;28;20543;-77
2023/04/07 06:07:43;;;;;;;16.75;7.28;;;;;;;7.08;100.00;101251.56;5066401;28;20617;-77
2023/04/07 06:10:09;;;;;;;20.13;7.97;;;;;;;7.12;100.00;101251.22;5046091;28;20334;-76
2023/04/07 06:12:35;;;;;;;16.85;7.65;;;;;;;7.17;100.00;101263.72;5071352;28;20028;-77
2023/04/07 06:15:00;;;;;;;15.75;7.40;;;;;;;7.20;100.00;101253.16;5069016;28;20456;-77
2023/04/07 06:17:26;;;;;;;23.65;8.55;;;;;;;7.26;100.00;101262.19;5047983;28;20118;-78
2023/04/07 06:19:51;;;;;;;20.40;8.75;;;;;;;7.17;100.00;101264.53;5062724;28;20044;-77
2023/04/07 06:22:16;;;;;;;18.65;9.27;;;;;;;7.25;100.00;101268.25;5085374;28;20028;-77
2023/04/07 06:24:42;;;;;;;18.08;7.82;;;;;;;7.31;100.00;101268.59;5067280;28;20078;-77
2023/04/07 06:27:07;;;;;;;18.20;9.50;;;;;;;7.27;100.00;101274.97;5056207;28;20093;-77
2023/04/07 06:29:33;;;;;;;21.17;9.07;;;;;;;7.16;100.00;101270.66;5071281;28;20035;-77
2023/04/07 06:32:02;;;;;;;19.73;9.20;;;;;;;7.34;100.00;101270.13;5083784;28;20056;-76
2023/04/07 06:34:28;;;;;;;20.48;8.70;;;;;;;7.22;100.00;101280.47;5047408;28;20051;-77
2023/04/07 06:36:53;;;;;;;19.23;8.57;;;;;;;7.20;100.00;101272.03;5050565;28;20028;-77
2023/04/07 06:39:19;;;;;;;16.88;8.57;;;;;;;7.22;100.00;101279.66;5084004;28;20482;-77
2023/04/07 06:41:45;;;;;;;18.25;9.30;;;;;;;7.18;100.00;101284.25;5050884;28;20028;-78
2023/04/07 06:44:11;;;;;;;26.23;11.13;;;;;;;7.25;100.00;101281.16;5089175;28;20108;-76
2023/04/07 06:46:36;;;;;;;22.20;10.32;;;;;;;7.26;100.00;101287.97;5067738;28;20036;-77
2023/04/07 06:49:02;;;;;;;22.15;9.18;;;;;;;7.28;100.00;101292.06;5063645;28;20032;-78
2023/04/07 06:51:28;;;;;;;21.98;9.02;;;;;;;7.25;100.00;101291.47;5064790;28;20036;-77
2023/04/07 06:53:54;;;;;;;23.95;10.10;;;;;;;7.22;100.00;101298.53;5044730;28;20040;-77
2023/04/07 06:56:19;;;;;;;23.98;10.23;;;;;;;7.30;100.00;101308.22;5071349;28;20115;-77
2023/04/07 06:58:45;;;;;;;24.38;10.48;;;;;;;7.25;100.00;101304.38;5026561;28;20071;-77
2023/04/07 07:01:11;;;;;;;24.35;10.25;;;;;;;7.30;100.00;101304.84;5086266;28;20051;-77
2023/04/07 07:03:37;;;;;;;26.33;11.43;;;;;;;7.30;100.00;101302.25;5048148;28;20031;-77
2023/04/07 07:06:02;;;;;;;23.50;10.43;;;;;;;7.44;100.00;101302.00;5051606;28;20044;-77
2023/04/07 07:08:28;;;;;;;27.30;10.60;;;;;;;7.44;100.00;101301.16;5069188;28;20032;-77
2023/04/07 07:10:54;;;;;;;26.25;11.20;;;;;;;7.48;100.00;101300.78;5066106;28;20057;-78
2023/04/07 07:13:27;;;;;;;23.70;11.93;;;;;;;7.40;100.00;101303.16;5062309;28;20529;-77
2023/04/07 07:15:53;;;;;;;24.67;10.98;;;;;;;7.44;100.00;101304.56;5076999;28;20065;-77
2023/04/07 07:18:18;;;;;;;23.10;10.05;;;;;;;7.46;100.00;101309.59;5068934;28;20067;-77
2023/04/07 07:20:44;;;;;;;25.48;10.95;;;;;;;7.46;100.00;101304.41;5046975;28;20033;-77
2023/04/07 07:23:10;;;;;;;25.00;10.93;;;;;;;7.59;100.00;101312.81;5065512;28;20040;-76
2023/04/07 07:25:36;;;;;;;26.77;10.73;;;;;;;7.62;100.00;101312.56;5049957;28;20371;-77
2023/04/07 07:28:01;;;;;;;25.40;11.80;;;;;;;7.64;100.00;101315.84;5062006;28;20048;-77
2023/04/07 07:30:26;;;;;;;27.58;11.27;;;;;;;7.69;100.00;101318.06;5050425;28;20032;-77
2023/04/07 07:32:53;;;;;;;20.55;9.68;;;;;;;7.65;100.00;101317.50;5063965;28;20045;-77
2023/04/07 07:35:19;;;;;;;21.55;10.07;;;;;;;7.79;100.00;101318.94;5066474;28;20044;-77
2023/04/07 07:37:45;;;;;;;25.05;10.75;;;;;;;7.70;100.00;101317.94;5065259;28;20032;-77
2023/04/07 07:40:10;;;;;;;22.13;9.65;;;;;;;7.74;100.00;101323.66;5065858;28;20497;-76
2023/04/07 07:42:37;;;;;;;40.13;16.58;;;;;;;7.86;100.00;101327.03;5059592;28;20037;-77
2023/04/07 07:45:03;;;;;;;35.28;16.55;;;;;;;7.87;100.00;101324.31;5066286;28;20036;-77
2023/04/07 07:47:29;;;;;;;110.50;51.00;;;;;;;7.88;100.00;101325.13;5064984;28;20051;-77
2023/04/07 07:49:54;;;;;;;42.50;19.05;;;;;;;7.90;100.00;101318.09;5065637;28;20394;-77
2023/04/07 07:52:20;;;;;;;54.00;22.20;;;;;;;7.94;100.00;101322.03;5048021;28;20040;-77
2023/04/07 07:54:47;;;;;;;33.47;17.45;;;;;;;7.88;100.00;101323.38;5080340;28;20498;-77
2023/04/07 07:57:12;;;;;;;72.90;32.67;;;;;;;7.92;100.00;101323.94;5065498;28;20040;-77
2023/04/07 07:59:40;;;;;;;64.28;26.83;;;;;;;7.89;100.00;101332.75;5071925;28;20044;-77
2023/04/07 08:02:06;;;;;;;43.92;22.10;;;;;;;7.97;100.00;101340.69;5060340;28;20445;-77
2023/04/07 08:04:32;;;;;;;38.42;20.20;;;;;;;7.95;100.00;101334.03;5064450;28;20037;-77
2023/04/07 08:06:57;;;;;;;54.30;27.90;;;;;;;7.96;100.00;101339.03;5060646;28;20044;-77
2023/04/07 08:09:23;;;;;;;39.67;20.85;;;;;;;7.99;100.00;101335.41;5059518;28;20040;-77
2023/04/07 08:11:49;;;;;;;38.72;16.35;;;;;;;8.11;100.00;101343.91;5071284;28;20037;-77
2023/04/07 08:14:15;;;;;;;32.03;14.75;;;;;;;8.11;100.00;101342.13;5046413;28;20033;-77
2023/04/07 08:16:41;;;;;;;35.50;16.95;;;;;;;8.17;100.00;101341.66;5041110;28;20041;-78
2023/04/07 08:19:06;;;;;;;26.08;12.40;;;;;;;8.08;100.00;101349.31;5065493;28;20039;-77
2023/04/07 08:21:32;;;;;;;25.00;10.95;;;;;;;8.13;100.00;101349.75;5061503;28;20040;-77
2023/04/07 08:23:57;;;;;;;25.48;10.82;;;;;;;8.13;100.00;101352.34;5059642;28;20037;-77
2023/04/07 08:26:23;;;;;;;29.35;12.27;;;;;;;8.04;100.00;101350.50;5064212;28;20036;-77
2023/04/07 08:28:52;;;;;;;25.60;11.70;;;;;;;8.04;100.00;101355.69;5039118;28;20112;-77
2023/04/07 08:31:17;;;;;;;29.50;11.48;;;;;;;8.13;100.00;101358.31;5054467;28;20033;-76
2023/04/07 08:33:43;;;;;;;26.10;12.18;;;;;;;8.18;100.00;101355.38;5071608;28;20093;-77
2023/04/07 08:36:08;;;;;;;34.88;11.98;;;;;;;8.08;100.00;101359.66;5043816;28;20028;-77
2023/04/07 08:38:34;;;;;;;30.38;12.57;;;;;;;8.05;100.00;101363.31;5063337;28;20040;-77
2023/04/07 08:41:06;;;;;;;29.13;12.18;;;;;;;8.03;100.00;101369.56;5040070;28;20050;-78
2023/04/07 08:43:35;;;;;;;24.73;11.73;;;;;;;8.05;100.00;101372.84;5054233;28;20461;-78
2023/04/07 08:46:01;;;;;;;35.25;14.13;;;;;;;8.08;100.00;101369.97;5048774;28;20033;-78
2023/04/07 08:48:32;;;;;;;30.35;12.43;;;;;;;8.09;100.00;101377.59;5058452;28;20120;-77
2023/04/07 08:51:03;;;;;;;30.02;12.85;;;;;;;8.07;100.00;101378.69;5059534;28;20091;-77
2023/04/07 08:53:36;;;;;;;25.48;11.23;;;;;;;8.18;100.00;101379.44;5042792;28;20391;-77
2023/04/07 08:56:05;;;;;;;22.67;10.98;;;;;;;8.11;100.00;101378.31;5081865;28;20170;-78
2023/04/07 08:58:30;;;;;;;30.23;12.10;;;;;;;8.19;100.00;101377.66;5063931;28;20041;-77
2023/04/07 09:00:56;;;;;;;29.70;11.35;;;;;;;8.26;100.00;101386.56;5037291;28;20401;-78
2023/04/07 09:03:23;;;;;;;25.27;10.70;;;;;;;8.27;100.00;101377.03;5062708;28;20418;-77
2023/04/07 09:05:50;;;;;;;26.90;10.88;;;;;;;8.23;100.00;101388.56;5066425;28;20574;-78
2023/04/07 09:08:15;;;;;;;23.30;10.15;;;;;;;8.17;100.00;101387.31;5056725;28;20048;-77
2023/04/07 09:10:41;;;;;;;23.25;9.05;;;;;;;8.13;100.00;101379.00;5064639;28;20090;-77
2023/04/07 09:13:06;;;;;;;21.85;8.50;;;;;;;8.37;100.00;101386.50;5063571;28;20056;-77
2023/04/07 09:15:32;;;;;;;21.77;10.52;;;;;;;8.29;100.00;101383.72;5063416;28;20486;-77
2023/04/07 09:17:58;;;;;;;16.70;8.77;;;;;;;8.33;100.00;101387.69;5079256;28;20029;-78
2023/04/07 09:20:24;;;;;;;24.88;10.02;;;;;;;8.33;100.00;101386.88;5064323;28;20433;-77
2023/04/07 09:22:50;;;;;;;21.02;10.13;;;;;;;8.36;100.00;101394.38;5078347;28;20116;-77
2023/04/07 09:25:28;;;;;;;28.10;11.63;;;;;;;8.47;100.00;101393.50;5057756;28;20037;-77
2023/04/07 09:28:02;;;;;;;23.40;10.48;;;;;;;8.42;100.00;101387.91;5068701;28;20082;-77
2023/04/07 09:30:29;;;;;;;24.48;9.63;;;;;;;8.39;100.00;101397.50;5063123;28;20040;-77
2023/04/07 09:32:55;;;;;;;22.52;10.43;;;;;;;8.28;100.00;101395.00;5078680;28;20053;-77
2023/04/07 09:35:22;;;;;;;29.00;10.77;;;;;;;8.18;100.00;101397.53;5065651;28;20032;-77
2023/04/07 09:38:07;;;;;;;19.77;10.07;;;;;;;8.28;100.00;101395.00;5049993;28;20047;-77
2023/04/07 09:40:35;;;;;;;25.33;11.25;;;;;;;8.36;100.00;101402.97;5041951;28;20028;-77
2023/04/07 09:43:02;;;;;;;25.25;11.25;;;;;;;8.29;100.00;101395.84;5047575;28;20406;-77
2023/04/07 09:45:30;;;;;;;27.92;11.75;;;;;;;8.30;100.00;101395.69;5065090;28;20515;-77
2023/04/07 09:47:56;;;;;;;37.70;15.95;;;;;;;8.30;100.00;101398.28;5062845;28;20032;-78
2023/04/07 09:50:34;;;;;;;30.88;11.88;;;;;;;8.31;100.00;101397.34;5056846;28;20023;-78
2023/04/07 09:53:01;;;;;;;188.20;66.57;;;;;;;8.31;100.00;101399.94;5063268;28;20068;-78
2023/04/07 09:55:27;;;;;;;72.75;29.88;;;;;;;8.28;100.00;101402.75;5066668;28;20048;-78
2023/04/07 09:57:57;;;;;;;35.15;14.45;;;;;;;8.32;100.00;101405.91;5070071;28;20094;-77
2023/04/07 10:00:23;;;;;;;34.63;12.45;;;;;;;8.32;100.00;101411.06;5054182;28;20494;-77
2023/04/07 10:02:50;;;;;;;34.85;14.05;;;;;;;8.25;100.00;101405.59;5064851;28;20186;-76
2023/04/07 10:05:16;;;;;;;35.55;15.25;;;;;;;8.25;100.00;101409.94;5070135;28;20688;-77
2023/04/07 10:07:42;;;;;;;25.25;12.25;;;;;;;8.27;100.00;101403.72;5062348;28;20123;-77
2023/04/07 10:10:08;;;;;;;69.63;29.42;;;;;;;8.25;100.00;101410.78;5062526;28;20075;-78
2023/04/07 10:12:36;;;;;;;29.27;12.88;;;;;;;8.38;100.00;101408.81;5062777;28;20044;-78
2023/04/07 10:15:02;;;;;;;25.27;11.73;;;;;;;8.38;100.00;101407.97;5086754;28;20030;-77
2023/04/07 10:17:29;;;;;;;32.58;12.30;;;;;;;8.41;100.00;101401.75;5081251;28;20043;-77
2023/04/07 10:20:00;;;;;;;21.90;10.23;;;;;;;8.40;100.00;101411.28;5050009;28;20082;-77
2023/04/07 10:22:30;;;;;;;27.27;11.38;;;;;;;8.44;100.00;101419.59;5050302;28;20089;-78
2023/04/07 10:24:59;;;;;;;26.92;12.05;;;;;;;8.47;100.00;101414.19;5065628;28;20467;-77
2023/04/07 10:27:50;;;;;;;23.48;11.02;;;;;;;8.88;100.00;101413.31;5050942;28;20040;-78
2023/04/07 10:30:28;;;;;;;27.77;11.20;;;;;;;8.98;100.00;101404.78;5065111;28;20063;-78
2023/04/07 10:32:54;;;;;;;21.92;11.18;;;;;;;8.91;100.00;101410.47;5061348;28;20040;-78
2023/04/07 10:35:21;;;;;;;26.35;11.68;;;;;;;8.89;100.00;101412.38;5045104;28;20043;-77
2023/04/07 10:38:12;;;;;;;21.00;9.98;;;;;;;8.88;100.00;101413.31;5065363;28;20047;-77
2023/04/07 10:40:39;;;;;;;22.65;10.77;;;;;;;8.98;100.00;101412.53;5062443;28;20032;-78
2023/04/07 10:43:10;;;;;;;23.13;10.98;;;;;;;8.95;100.00;101419.59;5044442;28;20068;-77
2023/04/07 10:45:44;;;;;;;27.70;11.27;;;;;;;8.87;100.00;101423.78;5078997;28;20029;-77
2023/04/07 10:48:11;;;;;;;25.83;10.00;;;;;;;8.75;100.00;101423.06;5063482;28;20162;-78
2023/04/07 10:50:37;;;;;;;24.35;10.60;;;;;;;8.88;100.00;101422.84;5068900;28;20034;-79
2023/04/07 10:53:08;;;;;;;23.63;10.20;;;;;;;8.81;100.00;101426.88;5069822;28;20088;-78
2023/04/07 10:55:36;;;;;;;20.38;9.88;;;;;;;8.96;100.00;101423.81;5063064;28;21303;-79
2023/04/07 10:58:14;;;;;;;20.23;9.32;;;;;;;9.01;100.00;101422.63;5053064;28;20052;-79
2023/04/07 11:00:39;;;;;;;18.95;9.38;;;;;;;8.96;100.00;101425.59;5050695;28;20032;-78
2023/04/07 11:03:12;;;;;;;20.20;10.13;;;;;;;9.10;100.00;101429.59;5080749;28;20040;-78
2023/04/07 11:05:41;;;;;;;17.80;9.50;;;;;;;9.31;100.00;101424.34;5063866;28;20750;-78
2023/04/07 11:26:53;;;;;;;16.35;8.07;;;;;;;9.49;100.00;101430.53;5069898;28;20055;-76
2023/04/07 11:29:27;;;;;;;17.38;7.65;;;;;;;9.43;100.00;101438.00;5099470;27;20037;-75
2023/04/07 11:31:55;;;;;;;30.15;11.75;;;;;;;9.41;100.00;101434.72;5065214;28;20028;-76
2023/04/07 11:34:21;;;;;;;25.33;9.80;;;;;;;9.37;100.00;101446.31;5098041;28;20028;-76
2023/04/07 11:36:46;;;;;;;21.67;8.20;;;;;;;9.42;100.00;101438.94;5064804;28;20624;-75
2023/04/07 11:39:26;;;;;;;21.67;9.32;;;;;;;9.33;100.00;101435.41;5076458;28;20029;-75
2023/04/07 11:41:52;;;;;;;19.27;8.20;;;;;;;9.42;100.00;101439.78;5067619;28;20044;-76